<?xml version="1.0" encoding="UTF-8" standalone="no" ?>
<gpx xmlns="http://www.topografix.com/GPX/1/1" xmlns:xsi="http://www.w3.org/2001/XMLSchema-instance" xsi:schemaLocation="http://www.topografix.com/GPX/1/1 http://www.topografix.com/GPX/1/1/gpx.xsd" version="1.1" creator="VisuGPX - https://www.visugpx.com">
  <metadata>
    <name>Etape 5-2_Col de Port de Lers</name>
  </metadata>
  <trk>
    <name><![CDATA[Etape 5_Ercé_Axat_154 kms_3924 D+ ]]></name>
    <extensions>
      <line xmlns="http://www.topografix.com/GPX/gpx_style/0/2">
        <color>0000FF</color>
        <width>4</width>
      </line>
    </extensions>
    <trkseg>
      <trkpt lat="42.80885" lon="1.37854">
        <ele>1279</ele>
        <time>2021-08-20T17:09:54Z</time>
      </trkpt>
      <trkpt lat="42.80883" lon="1.37884">
        <ele>1280</ele>
        <time>2021-08-20T17:09:58Z</time>
      </trkpt>
      <trkpt lat="42.80883" lon="1.37917">
        <ele>1281</ele>
        <time>2021-08-20T17:10:02Z</time>
      </trkpt>
      <trkpt lat="42.8089" lon="1.38013">
        <ele>1292</ele>
        <time>2021-08-20T17:10:14Z</time>
      </trkpt>
      <trkpt lat="42.8089" lon="1.3803">
        <ele>1294</ele>
        <time>2021-08-20T17:10:17Z</time>
      </trkpt>
      <trkpt lat="42.80887" lon="1.38047">
        <ele>1297</ele>
        <time>2021-08-20T17:10:19Z</time>
      </trkpt>
      <trkpt lat="42.80879" lon="1.38065">
        <ele>1300</ele>
        <time>2021-08-20T17:10:22Z</time>
      </trkpt>
      <trkpt lat="42.80855" lon="1.38105">
        <ele>1302</ele>
        <time>2021-08-20T17:10:28Z</time>
      </trkpt>
      <trkpt lat="42.80847" lon="1.38122">
        <ele>1302</ele>
        <time>2021-08-20T17:10:31Z</time>
      </trkpt>
      <trkpt lat="42.80838" lon="1.38157">
        <ele>1303</ele>
        <time>2021-08-20T17:10:36Z</time>
      </trkpt>
      <trkpt lat="42.80823" lon="1.3823">
        <ele>1303</ele>
        <time>2021-08-20T17:10:46Z</time>
      </trkpt>
      <trkpt lat="42.80819" lon="1.38268">
        <ele>1303</ele>
        <time>2021-08-20T17:10:51Z</time>
      </trkpt>
      <trkpt lat="42.80821" lon="1.38322">
        <ele>1301</ele>
        <time>2021-08-20T17:10:58Z</time>
      </trkpt>
      <trkpt lat="42.80824" lon="1.38336">
        <ele>1301</ele>
        <time>2021-08-20T17:11:00Z</time>
      </trkpt>
      <trkpt lat="42.80793" lon="1.3838">
        <ele>1299</ele>
        <time>2021-08-20T17:11:08Z</time>
      </trkpt>
      <trkpt lat="42.80781" lon="1.38394">
        <ele>1299</ele>
        <time>2021-08-20T17:11:11Z</time>
      </trkpt>
      <trkpt lat="42.80771" lon="1.38403">
        <ele>1300</ele>
        <time>2021-08-20T17:11:13Z</time>
      </trkpt>
      <trkpt lat="42.80731" lon="1.38423">
        <ele>1305</ele>
        <time>2021-08-20T17:11:20Z</time>
      </trkpt>
      <trkpt lat="42.80712" lon="1.38438">
        <ele>1310</ele>
        <time>2021-08-20T17:11:24Z</time>
      </trkpt>
      <trkpt lat="42.80705" lon="1.38448">
        <ele>1313</ele>
        <time>2021-08-20T17:11:26Z</time>
      </trkpt>
      <trkpt lat="42.80701" lon="1.38463">
        <ele>1316</ele>
        <time>2021-08-20T17:11:28Z</time>
      </trkpt>
      <trkpt lat="42.80702" lon="1.3847">
        <ele>1317</ele>
        <time>2021-08-20T17:11:29Z</time>
      </trkpt>
      <trkpt lat="42.80758" lon="1.38561">
        <ele>1314</ele>
        <time>2021-08-20T17:11:45Z</time>
      </trkpt>
      <trkpt lat="42.80758" lon="1.38572">
        <ele>1315</ele>
        <time>2021-08-20T17:11:46Z</time>
      </trkpt>
      <trkpt lat="42.80753" lon="1.38593">
        <ele>1318</ele>
        <time>2021-08-20T17:11:49Z</time>
      </trkpt>
      <trkpt lat="42.80752" lon="1.38611">
        <ele>1322</ele>
        <time>2021-08-20T17:11:51Z</time>
      </trkpt>
      <trkpt lat="42.80754" lon="1.38625">
        <ele>1324</ele>
        <time>2021-08-20T17:11:53Z</time>
      </trkpt>
      <trkpt lat="42.80767" lon="1.38656">
        <ele>1328</ele>
        <time>2021-08-20T17:11:58Z</time>
      </trkpt>
      <trkpt lat="42.80777" lon="1.38667">
        <ele>1329</ele>
        <time>2021-08-20T17:12:00Z</time>
      </trkpt>
      <trkpt lat="42.80811" lon="1.38689">
        <ele>1325</ele>
        <time>2021-08-20T17:12:07Z</time>
      </trkpt>
      <trkpt lat="42.80824" lon="1.38703">
        <ele>1324</ele>
        <time>2021-08-20T17:12:10Z</time>
      </trkpt>
      <trkpt lat="42.80826" lon="1.38714">
        <ele>1325</ele>
        <time>2021-08-20T17:12:11Z</time>
      </trkpt>
      <trkpt lat="42.80825" lon="1.38728">
        <ele>1326</ele>
        <time>2021-08-20T17:12:13Z</time>
      </trkpt>
      <trkpt lat="42.80823" lon="1.3874">
        <ele>1328</ele>
        <time>2021-08-20T17:12:15Z</time>
      </trkpt>
      <trkpt lat="42.80815" lon="1.38758">
        <ele>1330</ele>
        <time>2021-08-20T17:12:17Z</time>
      </trkpt>
      <trkpt lat="42.80797" lon="1.38777">
        <ele>1335</ele>
        <time>2021-08-20T17:12:21Z</time>
      </trkpt>
      <trkpt lat="42.8078" lon="1.38802">
        <ele>1339</ele>
        <time>2021-08-20T17:12:26Z</time>
      </trkpt>
      <trkpt lat="42.80774" lon="1.3882">
        <ele>1341</ele>
        <time>2021-08-20T17:12:28Z</time>
      </trkpt>
      <trkpt lat="42.80768" lon="1.38867">
        <ele>1342</ele>
        <time>2021-08-20T17:12:35Z</time>
      </trkpt>
      <trkpt lat="42.80766" lon="1.38872">
        <ele>1343</ele>
        <time>2021-08-20T17:12:35Z</time>
      </trkpt>
      <trkpt lat="42.80763" lon="1.38878">
        <ele>1344</ele>
        <time>2021-08-20T17:12:36Z</time>
      </trkpt>
      <trkpt lat="42.80748" lon="1.38894">
        <ele>1349</ele>
        <time>2021-08-20T17:12:40Z</time>
      </trkpt>
      <trkpt lat="42.80735" lon="1.38918">
        <ele>1355</ele>
        <time>2021-08-20T17:12:44Z</time>
      </trkpt>
      <trkpt lat="42.80726" lon="1.38949">
        <ele>1360</ele>
        <time>2021-08-20T17:12:48Z</time>
      </trkpt>
      <trkpt lat="42.80723" lon="1.38984">
        <ele>1362</ele>
        <time>2021-08-20T17:12:53Z</time>
      </trkpt>
      <trkpt lat="42.80726" lon="1.39013">
        <ele>1361</ele>
        <time>2021-08-20T17:12:56Z</time>
      </trkpt>
      <trkpt lat="42.80725" lon="1.39026">
        <ele>1361</ele>
        <time>2021-08-20T17:12:58Z</time>
      </trkpt>
      <trkpt lat="42.80718" lon="1.39047">
        <ele>1366</ele>
        <time>2021-08-20T17:13:01Z</time>
      </trkpt>
      <trkpt lat="42.80692" lon="1.39089">
        <ele>1382</ele>
        <time>2021-08-20T17:13:08Z</time>
      </trkpt>
      <trkpt lat="42.80686" lon="1.39114">
        <ele>1383</ele>
        <time>2021-08-20T17:13:12Z</time>
      </trkpt>
      <trkpt lat="42.80683" lon="1.39162">
        <ele>1380</ele>
        <time>2021-08-20T17:13:18Z</time>
      </trkpt>
      <trkpt lat="42.80685" lon="1.39174">
        <ele>1379</ele>
        <time>2021-08-20T17:13:20Z</time>
      </trkpt>
      <trkpt lat="42.80695" lon="1.39193">
        <ele>1376</ele>
        <time>2021-08-20T17:13:23Z</time>
      </trkpt>
      <trkpt lat="42.80736" lon="1.39253">
        <ele>1374</ele>
        <time>2021-08-20T17:13:33Z</time>
      </trkpt>
      <trkpt lat="42.80756" lon="1.3927">
        <ele>1375</ele>
        <time>2021-08-20T17:13:38Z</time>
      </trkpt>
      <trkpt lat="42.80815" lon="1.39311">
        <ele>1378</ele>
        <time>2021-08-20T17:13:49Z</time>
      </trkpt>
      <trkpt lat="42.80827" lon="1.39315">
        <ele>1377</ele>
        <time>2021-08-20T17:13:52Z</time>
      </trkpt>
      <trkpt lat="42.8084" lon="1.39312">
        <ele>1377</ele>
        <time>2021-08-20T17:13:54Z</time>
      </trkpt>
      <trkpt lat="42.8086" lon="1.39297">
        <ele>1378</ele>
        <time>2021-08-20T17:13:58Z</time>
      </trkpt>
      <trkpt lat="42.80869" lon="1.39293">
        <ele>1378</ele>
        <time>2021-08-20T17:14:00Z</time>
      </trkpt>
      <trkpt lat="42.80878" lon="1.39292">
        <ele>1380</ele>
        <time>2021-08-20T17:14:01Z</time>
      </trkpt>
      <trkpt lat="42.80899" lon="1.39295">
        <ele>1383</ele>
        <time>2021-08-20T17:14:05Z</time>
      </trkpt>
      <trkpt lat="42.80917" lon="1.39293">
        <ele>1386</ele>
        <time>2021-08-20T17:14:08Z</time>
      </trkpt>
      <trkpt lat="42.80926" lon="1.39289">
        <ele>1388</ele>
        <time>2021-08-20T17:14:10Z</time>
      </trkpt>
      <trkpt lat="42.80936" lon="1.39281">
        <ele>1389</ele>
        <time>2021-08-20T17:14:12Z</time>
      </trkpt>
      <trkpt lat="42.80972" lon="1.39237">
        <ele>1393</ele>
        <time>2021-08-20T17:14:21Z</time>
      </trkpt>
      <trkpt lat="42.81009" lon="1.39177">
        <ele>1392</ele>
        <time>2021-08-20T17:14:31Z</time>
      </trkpt>
      <trkpt lat="42.81055" lon="1.39107">
        <ele>1389</ele>
        <time>2021-08-20T17:14:43Z</time>
      </trkpt>
      <trkpt lat="42.81069" lon="1.39093">
        <ele>1391</ele>
        <time>2021-08-20T17:14:46Z</time>
      </trkpt>
      <trkpt lat="42.8109" lon="1.39077">
        <ele>1391</ele>
        <time>2021-08-20T17:14:50Z</time>
      </trkpt>
      <trkpt lat="42.81104" lon="1.39069">
        <ele>1387</ele>
        <time>2021-08-20T17:14:53Z</time>
      </trkpt>
      <trkpt lat="42.81109" lon="1.39069">
        <ele>1387</ele>
        <time>2021-08-20T17:14:54Z</time>
      </trkpt>
      <trkpt lat="42.81119" lon="1.39073">
        <ele>1387</ele>
        <time>2021-08-20T17:14:56Z</time>
      </trkpt>
      <trkpt lat="42.81123" lon="1.39079">
        <ele>1389</ele>
        <time>2021-08-20T17:14:57Z</time>
      </trkpt>
      <trkpt lat="42.81126" lon="1.39087">
        <ele>1390</ele>
        <time>2021-08-20T17:14:58Z</time>
      </trkpt>
      <trkpt lat="42.8113" lon="1.39112">
        <ele>1394</ele>
        <time>2021-08-20T17:15:01Z</time>
      </trkpt>
      <trkpt lat="42.81133" lon="1.39185">
        <ele>1405</ele>
        <time>2021-08-20T17:15:11Z</time>
      </trkpt>
      <trkpt lat="42.81127" lon="1.39227">
        <ele>1412</ele>
        <time>2021-08-20T17:15:17Z</time>
      </trkpt>
      <trkpt lat="42.81127" lon="1.39239">
        <ele>1413</ele>
        <time>2021-08-20T17:15:18Z</time>
      </trkpt>
      <trkpt lat="42.81128" lon="1.3925">
        <ele>1415</ele>
        <time>2021-08-20T17:15:20Z</time>
      </trkpt>
      <trkpt lat="42.81133" lon="1.39258">
        <ele>1416</ele>
        <time>2021-08-20T17:15:21Z</time>
      </trkpt>
      <trkpt lat="42.81139" lon="1.39264">
        <ele>1416</ele>
        <time>2021-08-20T17:15:22Z</time>
      </trkpt>
      <trkpt lat="42.81148" lon="1.39268">
        <ele>1416</ele>
        <time>2021-08-20T17:15:24Z</time>
      </trkpt>
      <trkpt lat="42.81185" lon="1.39267">
        <ele>1413</ele>
        <time>2021-08-20T17:15:31Z</time>
      </trkpt>
      <trkpt lat="42.81196" lon="1.39272">
        <ele>1412</ele>
        <time>2021-08-20T17:15:33Z</time>
      </trkpt>
      <trkpt lat="42.81217" lon="1.39304">
        <ele>1413</ele>
        <time>2021-08-20T17:15:38Z</time>
      </trkpt>
      <trkpt lat="42.81224" lon="1.39321">
        <ele>1415</ele>
        <time>2021-08-20T17:15:41Z</time>
      </trkpt>
      <trkpt lat="42.81225" lon="1.39342">
        <ele>1416</ele>
        <time>2021-08-20T17:15:43Z</time>
      </trkpt>
      <trkpt lat="42.81223" lon="1.39352">
        <ele>1416</ele>
        <time>2021-08-20T17:15:45Z</time>
      </trkpt>
      <trkpt lat="42.81219" lon="1.39361">
        <ele>1417</ele>
        <time>2021-08-20T17:15:46Z</time>
      </trkpt>
      <trkpt lat="42.81212" lon="1.39372">
        <ele>1418</ele>
        <time>2021-08-20T17:15:48Z</time>
      </trkpt>
      <trkpt lat="42.81182" lon="1.39403">
        <ele>1421</ele>
        <time>2021-08-20T17:15:55Z</time>
      </trkpt>
      <trkpt lat="42.81165" lon="1.39416">
        <ele>1422</ele>
        <time>2021-08-20T17:15:58Z</time>
      </trkpt>
      <trkpt lat="42.81144" lon="1.39427">
        <ele>1421</ele>
        <time>2021-08-20T17:16:02Z</time>
      </trkpt>
      <trkpt lat="42.8112" lon="1.39432">
        <ele>1422</ele>
        <time>2021-08-20T17:16:07Z</time>
      </trkpt>
      <trkpt lat="42.81103" lon="1.39433">
        <ele>1423</ele>
        <time>2021-08-20T17:16:10Z</time>
      </trkpt>
      <trkpt lat="42.8109" lon="1.39444">
        <ele>1423</ele>
        <time>2021-08-20T17:16:12Z</time>
      </trkpt>
      <trkpt lat="42.81085" lon="1.39451">
        <ele>1423</ele>
        <time>2021-08-20T17:16:14Z</time>
      </trkpt>
      <trkpt lat="42.81073" lon="1.39479">
        <ele>1423</ele>
        <time>2021-08-20T17:16:18Z</time>
      </trkpt>
      <trkpt lat="42.81046" lon="1.39527">
        <ele>1424</ele>
        <time>2021-08-20T17:16:26Z</time>
      </trkpt>
      <trkpt lat="42.81003" lon="1.39596">
        <ele>1427</ele>
        <time>2021-08-20T17:16:38Z</time>
      </trkpt>
      <trkpt lat="42.80991" lon="1.3962">
        <ele>1426</ele>
        <time>2021-08-20T17:16:41Z</time>
      </trkpt>
      <trkpt lat="42.80969" lon="1.39679">
        <ele>1426</ele>
        <time>2021-08-20T17:16:50Z</time>
      </trkpt>
      <trkpt lat="42.80956" lon="1.39706">
        <ele>1426</ele>
        <time>2021-08-20T17:16:54Z</time>
      </trkpt>
      <trkpt lat="42.80928" lon="1.39746">
        <ele>1427</ele>
        <time>2021-08-20T17:17:01Z</time>
      </trkpt>
      <trkpt lat="42.80898" lon="1.39782">
        <ele>1427</ele>
        <time>2021-08-20T17:17:09Z</time>
      </trkpt>
      <trkpt lat="42.80863" lon="1.39815">
        <ele>1429</ele>
        <time>2021-08-20T17:17:16Z</time>
      </trkpt>
      <trkpt lat="42.80778" lon="1.39881">
        <ele>1427</ele>
        <time>2021-08-20T17:17:34Z</time>
      </trkpt>
      <trkpt lat="42.80759" lon="1.3989">
        <ele>1427</ele>
        <time>2021-08-20T17:17:37Z</time>
      </trkpt>
      <trkpt lat="42.80691" lon="1.39906">
        <ele>1428</ele>
        <time>2021-08-20T17:17:49Z</time>
      </trkpt>
      <trkpt lat="42.80674" lon="1.39908">
        <ele>1428</ele>
        <time>2021-08-20T17:17:52Z</time>
      </trkpt>
      <trkpt lat="42.80654" lon="1.399">
        <ele>1431</ele>
        <time>2021-08-20T17:17:56Z</time>
      </trkpt>
      <trkpt lat="42.80629" lon="1.39882">
        <ele>1435</ele>
        <time>2021-08-20T17:18:01Z</time>
      </trkpt>
      <trkpt lat="42.80614" lon="1.39877">
        <ele>1437</ele>
        <time>2021-08-20T17:18:04Z</time>
      </trkpt>
      <trkpt lat="42.80607" lon="1.39878">
        <ele>1437</ele>
        <time>2021-08-20T17:18:05Z</time>
      </trkpt>
      <trkpt lat="42.806" lon="1.39882">
        <ele>1437</ele>
        <time>2021-08-20T17:18:07Z</time>
      </trkpt>
      <trkpt lat="42.80587" lon="1.39894">
        <ele>1436</ele>
        <time>2021-08-20T17:18:09Z</time>
      </trkpt>
      <trkpt lat="42.80562" lon="1.39928">
        <ele>1443</ele>
        <time>2021-08-20T17:18:16Z</time>
      </trkpt>
      <trkpt lat="42.80556" lon="1.39943">
        <ele>1446</ele>
        <time>2021-08-20T17:18:18Z</time>
      </trkpt>
      <trkpt lat="42.80546" lon="1.39993">
        <ele>1451</ele>
        <time>2021-08-20T17:18:25Z</time>
      </trkpt>
      <trkpt lat="42.80545" lon="1.40029">
        <ele>1455</ele>
        <time>2021-08-20T17:18:29Z</time>
      </trkpt>
      <trkpt lat="42.80548" lon="1.40074">
        <ele>1458</ele>
        <time>2021-08-20T17:18:35Z</time>
      </trkpt>
      <trkpt lat="42.80562" lon="1.40148">
        <ele>1461</ele>
        <time>2021-08-20T17:18:45Z</time>
      </trkpt>
      <trkpt lat="42.80576" lon="1.40192">
        <ele>1458</ele>
        <time>2021-08-20T17:18:51Z</time>
      </trkpt>
      <trkpt lat="42.8058" lon="1.40217">
        <ele>1458</ele>
        <time>2021-08-20T17:18:55Z</time>
      </trkpt>
      <trkpt lat="42.80581" lon="1.40236">
        <ele>1459</ele>
        <time>2021-08-20T17:18:57Z</time>
      </trkpt>
      <trkpt lat="42.80574" lon="1.40362">
        <ele>1469</ele>
        <time>2021-08-20T17:19:14Z</time>
      </trkpt>
      <trkpt lat="42.80576" lon="1.40387">
        <ele>1469</ele>
        <time>2021-08-20T17:19:17Z</time>
      </trkpt>
      <trkpt lat="42.80588" lon="1.40426">
        <ele>1467</ele>
        <time>2021-08-20T17:19:23Z</time>
      </trkpt>
      <trkpt lat="42.8059" lon="1.40456">
        <ele>1468</ele>
        <time>2021-08-20T17:19:26Z</time>
      </trkpt>
      <trkpt lat="42.80588" lon="1.4048">
        <ele>1470</ele>
        <time>2021-08-20T17:19:30Z</time>
      </trkpt>
      <trkpt lat="42.80567" lon="1.40579">
        <ele>1480</ele>
        <time>2021-08-20T17:19:43Z</time>
      </trkpt>
      <trkpt lat="42.8056" lon="1.40619">
        <ele>1485</ele>
        <time>2021-08-20T17:19:48Z</time>
      </trkpt>
      <trkpt lat="42.80561" lon="1.40659">
        <ele>1488</ele>
        <time>2021-08-20T17:19:54Z</time>
      </trkpt>
      <trkpt lat="42.80572" lon="1.40699">
        <ele>1489</ele>
        <time>2021-08-20T17:19:59Z</time>
      </trkpt>
      <trkpt lat="42.80576" lon="1.40725">
        <ele>1490</ele>
        <time>2021-08-20T17:20:03Z</time>
      </trkpt>
      <trkpt lat="42.80584" lon="1.40743">
        <ele>1491</ele>
        <time>2021-08-20T17:20:05Z</time>
      </trkpt>
      <trkpt lat="42.806" lon="1.40769">
        <ele>1493</ele>
        <time>2021-08-20T17:20:10Z</time>
      </trkpt>
      <trkpt lat="42.80605" lon="1.40792">
        <ele>1494</ele>
        <time>2021-08-20T17:20:13Z</time>
      </trkpt>
      <trkpt lat="42.80594" lon="1.40892">
        <ele>1500</ele>
        <time>2021-08-20T17:20:26Z</time>
      </trkpt>
      <trkpt lat="42.80598" lon="1.40913">
        <ele>1502</ele>
        <time>2021-08-20T17:20:29Z</time>
      </trkpt>
      <trkpt lat="42.80605" lon="1.40933">
        <ele>1504</ele>
        <time>2021-08-20T17:20:32Z</time>
      </trkpt>
      <trkpt lat="42.80617" lon="1.40948">
        <ele>1506</ele>
        <time>2021-08-20T17:20:35Z</time>
      </trkpt>
      <trkpt lat="42.80657" lon="1.40977">
        <ele>1508</ele>
        <time>2021-08-20T17:20:43Z</time>
      </trkpt>
      <trkpt lat="42.80664" lon="1.40986">
        <ele>1509</ele>
        <time>2021-08-20T17:20:45Z</time>
      </trkpt>
      <trkpt lat="42.80668" lon="1.40996">
        <ele>1510</ele>
        <time>2021-08-20T17:20:46Z</time>
      </trkpt>
      <trkpt lat="42.80671" lon="1.41011">
        <ele>1511</ele>
        <time>2021-08-20T17:20:48Z</time>
      </trkpt>
      <trkpt lat="42.80669" lon="1.41036">
        <ele>1512</ele>
        <time>2021-08-20T17:20:51Z</time>
      </trkpt>
      <trkpt lat="42.80663" lon="1.41065">
        <ele>1514</ele>
        <time>2021-08-20T17:20:55Z</time>
      </trkpt>
      <trkpt lat="42.80647" lon="1.41123">
        <ele>1517</ele>
        <time>2021-08-20T17:21:03Z</time>
      </trkpt>
      <trkpt lat="42.80641" lon="1.41159">
        <ele>1518</ele>
        <time>2021-08-20T17:21:08Z</time>
      </trkpt>
      <trkpt lat="42.80636" lon="1.41224">
        <ele>1517</ele>
        <time>2021-08-20T17:21:17Z</time>
      </trkpt>
      <trkpt lat="42.80637" lon="1.41255">
        <ele>1516</ele>
        <time>2021-08-20T17:21:21Z</time>
      </trkpt>
      <trkpt lat="42.80651" lon="1.41352">
        <ele>1510</ele>
        <time>2021-08-20T17:21:34Z</time>
      </trkpt>
      <trkpt lat="42.80673" lon="1.41482">
        <ele>1503</ele>
        <time>2021-08-20T17:21:51Z</time>
      </trkpt>
      <trkpt lat="42.80686" lon="1.41527">
        <ele>1502</ele>
        <time>2021-08-20T17:21:57Z</time>
      </trkpt>
    </trkseg>
  </trk>
</gpx>